sensor_id;sensor_type;location;lat;lon;timestamp;pressure;altitude;pressure_sealevel;temperature;humidity
72395;BME280;60384;48.152;11.614;2024-01-15T00:03:01;94274.56;;;2.07;58.43
72395;BME280;60384;48.152;11.614;2024-01-15T00:06:04;94277.66;;;2.11;58.64
72395;BME280;60384;48.152;11.614;2024-01-15T00:09:05;94280.78;;;2.15;58.89
72395;BME280;60384;48.152;11.614;2024-01-15T00:12:08;94290.25;;;2.16;58.87
72395;BME280;60384;48.152;11.614;2024-01-15T00:15:09;94270.63;;;2.03;58.74
72395;BME280;60384;48.152;11.614;2024-01-15T00:18:15;94295.81;;;2.21;59.02
72395;BME280;60384;48.152;11.614;2024-01-15T00:21:20;94294.19;;;2.20;59.30
72395;BME280;60384;48.152;11.614;2024-01-15T00:24:22;94297.81;;;2.19;59.42
72395;BME280;60384;48.152;11.614;2024-01-15T00:27:24;94177.75;;;1.43;59.39
72395;BME280;60384;48.152;11.614;2024-01-15T00:30:26;94298.13;;;2.16;59.35
72395;BME280;60384;48.152;11.614;2024-01-15T00:33:29;94293.09;;;2.14;59.72
72395;BME280;60384;48.152;11.614;2024-01-15T00:36:31;94297.50;;;2.14;59.55
72395;BME280;60384;48.152;11.614;2024-01-15T00:39:33;94301.28;;;2.11;60.02
72395;BME280;60384;48.152;11.614;2024-01-15T00:42:36;94312.44;;;2.13;59.82
72395;BME280;60384;48.152;11.614;2024-01-15T00:45:38;94257.44;;;1.81;60.35
72395;BME280;60384;48.152;11.614;2024-01-15T00:48:41;94279.88;;;1.83;60.21
72395;BME280;60384;48.152;11.614;2024-01-15T00:51:43;94285.66;;;1.79;60.24
72395;BME280;60384;48.152;11.614;2024-01-15T00:54:45;94315.09;;;2.05;60.32
72395;BME280;60384;48.152;11.614;2024-01-15T00:57:47;94321.66;;;2.01;60.31
72395;BME280;60384;48.152;11.614;2024-01-15T01:00:49;94325.28;;;2.00;60.34
72395;BME280;60384;48.152;11.614;2024-01-15T01:03:52;94347.63;;;1.96;60.01
72395;BME280;60384;48.152;11.614;2024-01-15T01:06:54;94348.94;;;1.84;60.16
72395;BME280;60384;48.152;11.614;2024-01-15T01:09:56;94325.38;;;1.59;59.99
72395;BME280;60384;48.152;11.614;2024-01-15T01:12:58;94338.84;;;1.56;59.96
72395;BME280;60384;48.152;11.614;2024-01-15T01:16:00;94349.19;;;1.42;60.01
72395;BME280;60384;48.152;11.614;2024-01-15T01:19:03;94342.13;;;1.34;59.94
72395;BME280;60384;48.152;11.614;2024-01-15T01:22:05;94222.41;;;0.45;59.65
72395;BME280;60384;48.152;11.614;2024-01-15T01:25:07;94350.66;;;1.20;59.79
72395;BME280;60384;48.152;11.614;2024-01-15T01:28:09;94351.97;;;1.16;59.82
72395;BME280;60384;48.152;11.614;2024-01-15T01:31:11;94324.09;;;0.90;59.67
72395;BME280;60384;48.152;11.614;2024-01-15T01:34:16;94266.28;;;0.51;59.92
72395;BME280;60384;48.152;11.614;2024-01-15T01:37:18;94361.13;;;1.03;59.80
72395;BME280;60384;48.152;11.614;2024-01-15T01:40:20;94357.53;;;1.04;59.83
72395;BME280;60384;48.152;11.614;2024-01-15T01:43:25;94351.78;;;1.01;59.67
72395;BME280;60384;48.152;11.614;2024-01-15T01:46:27;94369.00;;;1.03;59.72
72395;BME280;60384;48.152;11.614;2024-01-15T01:49:31;94320.63;;;0.74;59.46
72395;BME280;60384;48.152;11.614;2024-01-15T01:52:36;94360.47;;;1.01;59.51
72395;BME280;60384;48.152;11.614;2024-01-15T01:55:37;94348.03;;;1.03;59.40
72395;BME280;60384;48.152;11.614;2024-01-15T01:58:40;94361.13;;;1.03;59.40
72395;BME280;60384;48.152;11.614;2024-01-15T02:01:42;94354.09;;;1.04;59.40
72395;BME280;60384;48.152;11.614;2024-01-15T02:04:47;94367.34;;;1.02;59.09
72395;BME280;60384;48.152;11.614;2024-01-15T02:07:49;94294.75;;;0.62;59.02
72395;BME280;60384;48.152;11.614;2024-01-15T02:10:51;94359.16;;;1.06;59.02
72395;BME280;60384;48.152;11.614;2024-01-15T02:13:53;94333.28;;;0.86;58.94
72395;BME280;60384;48.152;11.614;2024-01-15T02:16:55;94356.88;;;1.02;59.01
72395;BME280;60384;48.152;11.614;2024-01-15T02:19:59;94360.78;;;0.98;58.92
72395;BME280;60384;48.152;11.614;2024-01-15T02:23:07;94362.09;;;1.02;58.93
72395;BME280;60384;48.152;11.614;2024-01-15T02:26:10;94371.13;;;1.00;58.90
72395;BME280;60384;48.152;11.614;2024-01-15T02:29:11;94372.09;;;0.99;58.92
72395;BME280;60384;48.152;11.614;2024-01-15T02:32:14;94338.97;;;0.74;58.82
72395;BME280;60384;48.152;11.614;2024-01-15T02:35:16;94369.31;;;1.00;58.82
72395;BME280;60384;48.152;11.614;2024-01-15T02:38:20;94374.38;;;0.94;58.73
72395;BME280;60384;48.152;11.614;2024-01-15T02:41:22;94320.09;;;0.46;58.62
72395;BME280;60384;48.152;11.614;2024-01-15T02:44:27;94322.72;;;0.46;58.69
72395;BME280;60384;48.152;11.614;2024-01-15T02:47:29;94382.53;;;0.83;58.76
72395;BME280;60384;48.152;11.614;2024-01-15T02:50:31;94358.94;;;0.66;58.88
72395;BME280;60384;48.152;11.614;2024-01-15T02:53:35;94322.06;;;0.44;59.00
72395;BME280;60384;48.152;11.614;2024-01-15T02:56:37;94384.69;;;0.87;58.68
72395;BME280;60384;48.152;11.614;2024-01-15T02:59:39;94367.50;;;0.93;58.67
72395;BME280;60384;48.152;11.614;2024-01-15T03:02:43;94399.59;;;0.95;58.84
72395;BME280;60384;48.152;11.614;2024-01-15T03:05:46;94389.09;;;0.95;58.59
72395;BME280;60384;48.152;11.614;2024-01-15T03:08:50;94381.25;;;0.95;58.78
72395;BME280;60384;48.152;11.614;2024-01-15T03:11:52;94394.50;;;0.93;58.80
72395;BME280;60384;48.152;11.614;2024-01-15T03:14:54;94361.09;;;0.79;58.71
72395;BME280;60384;48.152;11.614;2024-01-15T03:17:55;94386.84;;;1.00;58.63
72395;BME280;60384;48.152;11.614;2024-01-15T03:20:57;94387.66;;;1.00;58.64
72395;BME280;60384;48.152;11.614;2024-01-15T03:24:03;94328.63;;;0.72;58.92
72395;BME280;60384;48.152;11.614;2024-01-15T03:27:05;94376.34;;;1.00;58.70
72395;BME280;60384;48.152;11.614;2024-01-15T03:30:08;94370.41;;;0.90;58.51
72395;BME280;60384;48.152;11.614;2024-01-15T03:33:10;94331.94;;;0.74;58.51
72395;BME280;60384;48.152;11.614;2024-01-15T03:36:12;94376.84;;;1.03;58.45
72395;BME280;60384;48.152;11.614;2024-01-15T03:39:15;94352.59;;;0.85;58.63
72395;BME280;60384;48.152;11.614;2024-01-15T03:42:17;94377.50;;;1.06;58.55
72395;BME280;60384;48.152;11.614;2024-01-15T03:45:19;94379.31;;;1.05;58.46
72395;BME280;60384;48.152;11.614;2024-01-15T03:48:21;94348.66;;;0.81;58.53
72395;BME280;60384;48.152;11.614;2024-01-15T03:51:23;94261.34;;;0.32;58.54
72395;BME280;60384;48.152;11.614;2024-01-15T03:54:26;94335.56;;;0.89;58.46
72395;BME280;60384;48.152;11.614;2024-01-15T03:57:28;94378.16;;;1.08;58.56
72395;BME280;60384;48.152;11.614;2024-01-15T04:00:30;94355.72;;;0.97;58.53
72395;BME280;60384;48.152;11.614;2024-01-15T04:03:32;94376.34;;;1.08;58.48
72395;BME280;60384;48.152;11.614;2024-01-15T04:06:34;94268.75;;;0.53;58.32
72395;BME280;60384;48.152;11.614;2024-01-15T04:09:37;94343.59;;;0.96;58.36
72395;BME280;60384;48.152;11.614;2024-01-15T04:12:39;94360.00;;;1.06;58.27
72395;BME280;60384;48.152;11.614;2024-01-15T04:15:42;94353.78;;;1.07;58.41
72395;BME280;60384;48.152;11.614;2024-01-15T04:18:43;94342.63;;;1.05;58.43
72395;BME280;60384;48.152;11.614;2024-01-15T04:21:45;94330.13;;;0.91;58.09
72395;BME280;60384;48.152;11.614;2024-01-15T04:24:49;94348.66;;;0.97;58.38
72395;BME280;60384;48.152;11.614;2024-01-15T04:27:51;94356.53;;;0.97;58.63
72395;BME280;60384;48.152;11.614;2024-01-15T04:30:53;94333.25;;;0.78;58.40
72395;BME280;60384;48.152;11.614;2024-01-15T04:33:55;94356.69;;;0.96;58.18
72395;BME280;60384;48.152;11.614;2024-01-15T04:36:56;94327.03;;;0.79;58.36
72395;BME280;60384;48.152;11.614;2024-01-15T04:40:00;94357.84;;;1.01;58.43
72395;BME280;60384;48.152;11.614;2024-01-15T04:43:03;94364.22;;;0.99;58.41
72395;BME280;60384;48.152;11.614;2024-01-15T04:46:05;94294.59;;;0.64;58.36
72395;BME280;60384;48.152;11.614;2024-01-15T04:49:08;94293.16;;;0.69;58.12
72395;BME280;60384;48.152;11.614;2024-01-15T04:52:10;94342.94;;;1.02;58.23
72395;BME280;60384;48.152;11.614;2024-01-15T04:55:14;94346.88;;;0.98;58.31
72395;BME280;60384;48.152;11.614;2024-01-15T04:58:18;94342.28;;;1.00;58.28
72395;BME280;60384;48.152;11.614;2024-01-15T05:01:20;94348.66;;;0.97;58.08
72395;BME280;60384;48.152;11.614;2024-01-15T05:04:22;94364.72;;;0.94;58.24
72395;BME280;60384;48.152;11.614;2024-01-15T05:07:25;94353.25;;;0.95;58.28
72395;BME280;60384;48.152;11.614;2024-01-15T05:10:28;94334.69;;;0.73;58.40
72395;BME280;60384;48.152;11.614;2024-01-15T05:13:30;94332.28;;;0.95;58.32
72395;BME280;60384;48.152;11.614;2024-01-15T05:16:32;94339.31;;;0.95;58.18
72395;BME280;60384;48.152;11.614;2024-01-15T05:19:37;94349.81;;;0.95;58.29
72395;BME280;60384;48.152;11.614;2024-01-15T05:22:39;94347.34;;;0.93;58.22
72395;BME280;60384;48.152;11.614;2024-01-15T05:25:42;94326.00;;;0.56;58.74
72395;BME280;60384;48.152;11.614;2024-01-15T05:28:44;94350.31;;;0.98;58.36
72395;BME280;60384;48.152;11.614;2024-01-15T05:31:46;94260.19;;;0.43;58.28
72395;BME280;60384;48.152;11.614;2024-01-15T05:34:48;94289.19;;;0.65;58.27
72395;BME280;60384;48.152;11.614;2024-01-15T05:37:50;94350.63;;;0.95;58.26
72395;BME280;60384;48.152;11.614;2024-01-15T05:40:53;94071.88;;;-0.98;58.33
72395;BME280;60384;48.152;11.614;2024-01-15T05:43:55;94255.94;;;0.42;58.42
72395;BME280;60384;48.152;11.614;2024-01-15T05:46:57;94350.13;;;0.92;58.21
72395;BME280;60384;48.152;11.614;2024-01-15T05:50:00;94352.09;;;0.90;58.55
72395;BME280;60384;48.152;11.614;2024-01-15T05:53:03;94353.72;;;0.91;58.25
72395;BME280;60384;48.152;11.614;2024-01-15T05:56:06;94353.56;;;0.92;58.25
72395;BME280;60384;48.152;11.614;2024-01-15T05:59:08;94314.41;;;0.66;58.71
72395;BME280;60384;48.152;11.614;2024-01-15T06:02:11;94356.69;;;0.96;58.21
72395;BME280;60384;48.152;11.614;2024-01-15T06:05:12;94348.00;;;0.95;58.08
72395;BME280;60384;48.152;11.614;2024-01-15T06:08:15;94345.88;;;0.91;58.28
72395;BME280;60384;48.152;11.614;2024-01-15T06:11:18;94344.41;;;0.88;58.18
72395;BME280;60384;48.152;11.614;2024-01-15T06:14:22;94349.81;;;0.87;58.22
72395;BME280;60384;48.152;11.614;2024-01-15T06:17:24;94330.78;;;0.68;58.16
72395;BME280;60384;48.152;11.614;2024-01-15T06:20:26;94352.09;;;0.90;58.41
72395;BME280;60384;48.152;11.614;2024-01-15T06:23:28;94346.69;;;0.83;58.18
72395;BME280;60384;48.152;11.614;2024-01-15T06:26:34;94274.94;;;0.44;58.35
72395;BME280;60384;48.152;11.614;2024-01-15T06:29:44;94368.50;;;1.00;58.05
72395;BME280;60384;48.152;11.614;2024-01-15T06:32:49;94357.84;;;1.01;57.91
72395;BME280;60384;48.152;11.614;2024-01-15T06:35:52;94227.13;;;0.25;58.07
72395;BME280;60384;48.152;11.614;2024-01-15T06:38:54;94352.94;;;1.07;58.08
72395;BME280;60384;48.152;11.614;2024-01-15T06:41:58;94251.69;;;0.32;57.73
72395;BME280;60384;48.152;11.614;2024-01-15T06:44:59;94286.94;;;0.71;57.86
72395;BME280;60384;48.152;11.614;2024-01-15T06:48:02;94360.97;;;1.05;57.81
72395;BME280;60384;48.152;11.614;2024-01-15T06:51:04;94290.19;;;0.64;57.75
72395;BME280;60384;48.152;11.614;2024-01-15T06:54:06;94355.72;;;1.05;57.82
72395;BME280;60384;48.152;11.614;2024-01-15T06:57:09;94357.38;;;1.06;57.82
72395;BME280;60384;48.152;11.614;2024-01-15T07:00:12;94360.81;;;1.07;57.84
72395;BME280;60384;48.152;11.614;2024-01-15T07:03:14;94279.38;;;0.59;58.04
72395;BME280;60384;48.152;11.614;2024-01-15T07:06:16;94335.72;;;0.96;57.85
72395;BME280;60384;48.152;11.614;2024-01-15T07:09:18;94329.69;;;0.87;57.69
72395;BME280;60384;48.152;11.614;2024-01-15T07:12:21;94355.88;;;1.03;57.85
72395;BME280;60384;48.152;11.614;2024-01-15T07:15:23;94358.66;;;1.02;57.87
72395;BME280;60384;48.152;11.614;2024-01-15T07:18:25;94345.72;;;1.09;57.69
72395;BME280;60384;48.152;11.614;2024-01-15T07:21:27;94273.31;;;0.75;57.69
72395;BME280;60384;48.152;11.614;2024-01-15T07:24:30;94341.78;;;1.13;57.69
72395;BME280;60384;48.152;11.614;2024-01-15T07:27:36;94285.59;;;0.75;57.45
72395;BME280;60384;48.152;11.614;2024-01-15T07:30:38;94285.44;;;0.76;57.83
72395;BME280;60384;48.152;11.614;2024-01-15T07:33:40;94296.91;;;0.83;57.86
72395;BME280;60384;48.152;11.614;2024-01-15T07:36:42;94344.28;;;1.22;57.63
72395;BME280;60384;48.152;11.614;2024-01-15T07:39:43;94342.78;;;1.12;57.76
72395;BME280;60384;48.152;11.614;2024-01-15T07:42:47;94274.66;;;0.87;57.56
72395;BME280;60384;48.152;11.614;2024-01-15T07:45:49;94266.28;;;0.84;57.64
72395;BME280;60384;48.152;11.614;2024-01-15T07:48:51;94336.22;;;1.32;57.74
72395;BME280;60384;48.152;11.614;2024-01-15T07:51:56;94258.44;;;0.84;57.69
72395;BME280;60384;48.152;11.614;2024-01-15T07:54:58;94297.91;;;1.07;57.50
72395;BME280;60384;48.152;11.614;2024-01-15T07:58:03;94332.28;;;1.44;57.69
72395;BME280;60384;48.152;11.614;2024-01-15T08:01:05;94095.63;;;-0.01;57.56
72395;BME280;60384;48.152;11.614;2024-01-15T08:04:07;94286.75;;;1.13;57.68
72395;BME280;60384;48.152;11.614;2024-01-15T08:07:13;94291.50;;;1.25;57.68
72395;BME280;60384;48.152;11.614;2024-01-15T08:10:15;94314.72;;;1.45;57.69
72395;BME280;60384;48.152;11.614;2024-01-15T08:13:18;94334.72;;;1.46;57.56
72395;BME280;60384;48.152;11.614;2024-01-15T08:16:20;94304.75;;;1.48;57.75
72395;BME280;60384;48.152;11.614;2024-01-15T08:19:22;94280.03;;;1.34;57.60
72395;BME280;60384;48.152;11.614;2024-01-15T08:22:24;94252.53;;;1.22;57.80
72395;BME280;60384;48.152;11.614;2024-01-15T08:25:26;94312.13;;;1.61;57.55
72395;BME280;60384;48.152;11.614;2024-01-15T08:28:30;94281.50;;;1.37;57.66
72395;BME280;60384;48.152;11.614;2024-01-15T08:31:33;94294.91;;;1.58;57.72
72395;BME280;60384;48.152;11.614;2024-01-15T08:34:34;94306.03;;;1.60;57.62
72395;BME280;60384;48.152;11.614;2024-01-15T08:37:37;93980.06;;;-0.37;57.57
72395;BME280;60384;48.152;11.614;2024-01-15T08:40:38;94310.28;;;1.69;57.59
72395;BME280;60384;48.152;11.614;2024-01-15T08:43:42;94224.19;;;1.01;57.55
72395;BME280;60384;48.152;11.614;2024-01-15T08:46:44;94306.03;;;1.60;57.60
72395;BME280;60384;48.152;11.614;2024-01-15T08:49:47;94316.34;;;1.62;57.66
72395;BME280;60384;48.152;11.614;2024-01-15T08:52:49;94308.81;;;1.67;57.49
72395;BME280;60384;48.152;11.614;2024-01-15T08:55:51;94244.00;;;1.20;57.40
72395;BME280;60384;48.152;11.614;2024-01-15T08:58:54;94192.25;;;0.90;57.41
72395;BME280;60384;48.152;11.614;2024-01-15T09:01:57;94277.72;;;1.39;57.23
72395;BME280;60384;48.152;11.614;2024-01-15T09:05:02;94306.38;;;1.57;57.16
72395;BME280;60384;48.152;11.614;2024-01-15T09:08:05;94289.31;;;1.53;57.50
72395;BME280;60384;48.152;11.614;2024-01-15T09:11:07;94281.13;;;1.48;57.41
72395;BME280;60384;48.152;11.614;2024-01-15T09:14:11;94320.94;;;1.76;57.49
72395;BME280;60384;48.152;11.614;2024-01-15T09:17:13;94317.78;;;1.81;57.43
72395;BME280;60384;48.152;11.614;2024-01-15T09:20:16;94309.13;;;1.72;57.42
72395;BME280;60384;48.152;11.614;2024-01-15T09:23:19;94319.09;;;1.85;57.43
72395;BME280;60384;48.152;11.614;2024-01-15T09:26:21;94250.81;;;1.46;57.37
72395;BME280;60384;48.152;11.614;2024-01-15T09:29:24;94310.38;;;1.92;57.19
72395;BME280;60384;48.152;11.614;2024-01-15T09:32:26;94292.56;;;1.71;57.42
72395;BME280;60384;48.152;11.614;2024-01-15T09:35:28;94323.84;;;1.89;57.15
72395;BME280;60384;48.152;11.614;2024-01-15T09:38:30;94331.72;;;1.89;57.35
72395;BME280;60384;48.152;11.614;2024-01-15T09:41:32;94324.16;;;1.94;57.42
72395;BME280;60384;48.152;11.614;2024-01-15T09:44:35;94321.38;;;1.96;57.23
72395;BME280;60384;48.152;11.614;2024-01-15T09:47:37;94323.63;;;1.99;57.21
72395;BME280;60384;48.152;11.614;2024-01-15T09:50:40;94317.88;;;2.03;57.22
72395;BME280;60384;48.152;11.614;2024-01-15T09:53:42;94320.19;;;2.06;57.21
72395;BME280;60384;48.152;11.614;2024-01-15T09:56:45;94306.06;;;1.99;56.98
72395;BME280;60384;48.152;11.614;2024-01-15T09:59:50;94256.34;;;1.67;56.91
72395;BME280;60384;48.152;11.614;2024-01-15T10:02:53;94315.56;;;2.08;56.76
72395;BME280;60384;48.152;11.614;2024-01-15T10:05:57;94313.88;;;2.16;56.72
72395;BME280;60384;48.152;11.614;2024-01-15T10:09:03;94289.00;;;2.03;56.65
72395;BME280;60384;48.152;11.614;2024-01-15T10:12:06;94307.97;;;2.22;56.55
72395;BME280;60384;48.152;11.614;2024-01-15T10:15:11;94284.84;;;2.17;56.61
72395;BME280;60384;48.152;11.614;2024-01-15T10:18:13;94295.16;;;2.27;56.89
72395;BME280;60384;48.152;11.614;2024-01-15T10:21:15;94301.22;;;2.27;56.45
72395;BME280;60384;48.152;11.614;2024-01-15T10:24:17;94246.19;;;2.03;56.74
72395;BME280;60384;48.152;11.614;2024-01-15T10:27:19;94232.47;;;1.93;56.37
72395;BME280;60384;48.152;11.614;2024-01-15T10:30:24;94282.63;;;2.37;56.49
72395;BME280;60384;48.152;11.614;2024-01-15T10:33:26;94267.34;;;2.40;56.55
72395;BME280;60384;48.152;11.614;2024-01-15T10:36:29;94268.16;;;2.41;56.33
72395;BME280;60384;48.152;11.614;2024-01-15T10:39:32;94240.13;;;2.33;56.60
72395;BME280;60384;48.152;11.614;2024-01-15T10:42:34;94257.72;;;2.56;56.45
72395;BME280;60384;48.152;11.614;2024-01-15T10:45:37;94249.50;;;2.59;56.37
72395;BME280;60384;48.152;11.614;2024-01-15T10:48:39;94250.47;;;2.58;56.28
72395;BME280;60384;48.152;11.614;2024-01-15T10:51:42;94255.09;;;2.56;56.40
72395;BME280;60384;48.152;11.614;2024-01-15T10:54:45;94268.59;;;2.75;56.24
72395;BME280;60384;48.152;11.614;2024-01-15T10:57:48;94143.66;;;2.04;56.16
72395;BME280;60384;48.152;11.614;2024-01-15T11:00:53;94250.78;;;2.86;56.21
72395;BME280;60384;48.152;11.614;2024-01-15T11:03:56;94216.88;;;2.91;55.93
72395;BME280;60384;48.152;11.614;2024-01-15T11:06:58;94245.34;;;3.25;55.64
72395;BME280;60384;48.152;11.614;2024-01-15T11:10:03;94190.72;;;2.97;55.57
72395;BME280;60384;48.152;11.614;2024-01-15T11:13:08;94231.59;;;3.37;55.45
72395;BME280;60384;48.152;11.614;2024-01-15T11:16:13;94152.53;;;2.87;55.72
72395;BME280;60384;48.152;11.614;2024-01-15T11:19:18;94185.66;;;3.10;55.88
72395;BME280;60384;48.152;11.614;2024-01-15T11:22:53;94217.16;;;3.33;55.82
72395;BME280;60384;48.152;11.614;2024-01-15T11:25:58;94231.78;;;3.36;55.86
72395;BME280;60384;48.152;11.614;2024-01-15T11:29:01;94152.97;;;2.75;55.97
72395;BME280;60384;48.152;11.614;2024-01-15T11:32:06;94231.03;;;3.27;56.05
72395;BME280;60384;48.152;11.614;2024-01-15T11:35:09;94209.50;;;3.09;56.10
72395;BME280;60384;48.152;11.614;2024-01-15T11:38:11;94165.00;;;2.70;55.76
72395;BME280;60384;48.152;11.614;2024-01-15T11:41:17;94201.22;;;2.97;56.30
72395;BME280;60384;48.152;11.614;2024-01-15T11:44:20;94176.13;;;2.72;56.02
72395;BME280;60384;48.152;11.614;2024-01-15T11:51:11;94157.97;;;2.85;55.99
72395;BME280;60384;48.152;11.614;2024-01-15T11:54:15;94173.59;;;4.89;53.25
72395;BME280;60384;48.152;11.614;2024-01-15T11:57:22;94145.25;;;5.88;51.84
72395;BME280;60384;48.152;11.614;2024-01-15T12:00:28;94131.00;;;6.44;50.95
72395;BME280;60384;48.152;11.614;2024-01-15T12:03:32;94207.19;;;7.27;50.01
72395;BME280;60384;48.152;11.614;2024-01-15T12:06:35;94191.88;;;7.03;50.97
72395;BME280;60384;48.152;11.614;2024-01-15T12:09:43;94155.28;;;6.13;52.16
72395;BME280;60384;48.152;11.614;2024-01-15T12:12:54;94193.47;;;5.69;53.02
72395;BME280;60384;48.152;11.614;2024-01-15T12:16:01;94194.13;;;5.15;54.09
72395;BME280;60384;48.152;11.614;2024-01-15T12:19:06;94169.75;;;5.13;53.68
72395;BME280;60384;48.152;11.614;2024-01-15T12:22:09;94124.13;;;5.54;52.92
72395;BME280;60384;48.152;11.614;2024-01-15T12:25:11;94127.75;;;7.01;51.43
72395;BME280;60384;48.152;11.614;2024-01-15T12:28:13;94155.44;;;8.16;49.43
72395;BME280;60384;48.152;11.614;2024-01-15T12:31:16;94128.03;;;8.73;48.20
72395;BME280;60384;48.152;11.614;2024-01-15T12:34:18;94065.59;;;9.14;47.66
72395;BME280;60384;48.152;11.614;2024-01-15T12:37:21;94115.34;;;9.68;47.36
72395;BME280;60384;48.152;11.614;2024-01-15T12:40:24;94099.25;;;9.63;47.37
72395;BME280;60384;48.152;11.614;2024-01-15T12:43:25;94119.91;;;9.61;47.63
72395;BME280;60384;48.152;11.614;2024-01-15T12:46:28;94122.91;;;9.03;48.67
72395;BME280;60384;48.152;11.614;2024-01-15T12:49:30;94131.44;;;8.80;48.92
72395;BME280;60384;48.152;11.614;2024-01-15T12:52:33;94110.22;;;8.49;49.69
72395;BME280;60384;48.152;11.614;2024-01-15T12:55:35;94118.13;;;8.11;49.99
72395;BME280;60384;48.152;11.614;2024-01-15T12:58:37;94127.22;;;7.83;50.42
72395;BME280;60384;48.152;11.614;2024-01-15T13:01:41;94133.38;;;7.64;51.13
72395;BME280;60384;48.152;11.614;2024-01-15T13:04:43;94022.97;;;6.67;51.68
72395;BME280;60384;48.152;11.614;2024-01-15T13:07:46;94124.91;;;7.22;52.11
72395;BME280;60384;48.152;11.614;2024-01-15T13:10:48;93961.34;;;5.87;52.27
72395;BME280;60384;48.152;11.614;2024-01-15T13:13:52;94154.41;;;6.73;52.65
72395;BME280;60384;48.152;11.614;2024-01-15T13:16:54;94171.00;;;6.34;53.31
72395;BME280;60384;48.152;11.614;2024-01-15T13:19:56;94170.72;;;6.09;53.77
72395;BME280;60384;48.152;11.614;2024-01-15T13:23:00;94156.94;;;5.73;54.12
72395;BME280;60384;48.152;11.614;2024-01-15T13:26:04;94168.59;;;5.57;54.30
72395;BME280;60384;48.152;11.614;2024-01-15T13:29:09;94155.53;;;5.42;54.53
72395;BME280;60384;48.152;11.614;2024-01-15T13:32:13;94144.22;;;5.20;54.70
72395;BME280;60384;48.152;11.614;2024-01-15T13:35:19;94091.81;;;4.83;54.86
72395;BME280;60384;48.152;11.614;2024-01-15T13:38:22;94149.59;;;5.06;55.02
72395;BME280;60384;48.152;11.614;2024-01-15T13:41:25;94156.84;;;4.97;55.18
72395;BME280;60384;48.152;11.614;2024-01-15T13:44:27;94167.88;;;4.86;54.80
72395;BME280;60384;48.152;11.614;2024-01-15T13:47:29;94157.78;;;4.68;54.97
72395;BME280;60384;48.152;11.614;2024-01-15T13:50:31;94143.94;;;4.38;55.21
72395;BME280;60384;48.152;11.614;2024-01-15T13:53:35;94111.19;;;4.05;55.20
72395;BME280;60384;48.152;11.614;2024-01-15T13:56:37;94146.63;;;4.24;55.37
72395;BME280;60384;48.152;11.614;2024-01-15T13:59:39;93909.38;;;2.76;55.07
72395;BME280;60384;48.152;11.614;2024-01-15T14:02:41;94160.44;;;4.26;55.54
72395;BME280;60384;48.152;11.614;2024-01-15T14:05:43;94160.72;;;4.16;55.19
72395;BME280;60384;48.152;11.614;2024-01-15T14:08:46;94079.06;;;3.59;55.44
72395;BME280;60384;48.152;11.614;2024-01-15T14:11:48;94149.28;;;3.88;55.52
72395;BME280;60384;48.152;11.614;2024-01-15T14:14:51;94161.81;;;3.86;55.98
72395;BME280;60384;48.152;11.614;2024-01-15T14:17:53;94124.38;;;3.54;55.14
72395;BME280;60384;48.152;11.614;2024-01-15T14:20:55;94157.09;;;3.66;55.55
72395;BME280;60384;48.152;11.614;2024-01-15T14:23:58;94160.56;;;3.67;55.74
72395;BME280;60384;48.152;11.614;2024-01-15T14:27:00;94170.16;;;3.60;55.86
72395;BME280;60384;48.152;11.614;2024-01-15T14:30:02;94195.41;;;3.69;55.91
72395;BME280;60384;48.152;11.614;2024-01-15T14:33:06;94195.47;;;3.61;55.96
72395;BME280;60384;48.152;11.614;2024-01-15T14:36:08;94196.22;;;3.55;56.09
72395;BME280;60384;48.152;11.614;2024-01-15T14:39:12;94164.81;;;3.24;55.51
72395;BME280;60384;48.152;11.614;2024-01-15T14:42:14;94133.88;;;3.11;56.46
72395;BME280;60384;48.152;11.614;2024-01-15T14:45:16;94195.03;;;3.42;56.26
72395;BME280;60384;48.152;11.614;2024-01-15T14:48:18;94104.78;;;2.83;56.19
72395;BME280;60384;48.152;11.614;2024-01-15T14:51:20;94207.09;;;3.37;56.25
72395;BME280;60384;48.152;11.614;2024-01-15T14:54:23;94174.78;;;3.13;56.36
72395;BME280;60384;48.152;11.614;2024-01-15T14:57:25;94118.06;;;2.67;56.48
72395;BME280;60384;48.152;11.614;2024-01-15T15:00:29;94207.88;;;3.23;56.57
72395;BME280;60384;48.152;11.614;2024-01-15T15:03:31;94213.34;;;3.21;56.49
72395;BME280;60384;48.152;11.614;2024-01-15T15:06:33;94149.47;;;2.83;56.19
72395;BME280;60384;48.152;11.614;2024-01-15T15:09:37;94150.84;;;2.71;56.19
72395;BME280;60384;48.152;11.614;2024-01-15T15:12:42;94217.69;;;3.14;56.46
72395;BME280;60384;48.152;11.614;2024-01-15T15:15:44;94240.69;;;3.12;56.49
72395;BME280;60384;48.152;11.614;2024-01-15T15:18:46;94226.91;;;3.10;56.34
72395;BME280;60384;48.152;11.614;2024-01-15T15:21:48;94123.56;;;2.34;56.77
72395;BME280;60384;48.152;11.614;2024-01-15T15:24:51;94143.72;;;2.42;56.50
72395;BME280;60384;48.152;11.614;2024-01-15T15:27:53;94242.00;;;2.93;56.62
72395;BME280;60384;48.152;11.614;2024-01-15T15:30:55;94241.19;;;2.93;56.72
72395;BME280;60384;48.152;11.614;2024-01-15T15:33:58;94250.53;;;2.95;56.83
72395;BME280;60384;48.152;11.614;2024-01-15T15:37:00;94258.91;;;2.99;56.56
72395;BME280;60384;48.152;11.614;2024-01-15T15:40:06;94251.81;;;2.99;56.61
72395;BME280;60384;48.152;11.614;2024-01-15T15:43:11;94260.53;;;3.00;56.93
72395;BME280;60384;48.152;11.614;2024-01-15T15:46:13;94255.97;;;2.94;56.61
72395;BME280;60384;48.152;11.614;2024-01-15T15:49:15;94265.84;;;2.92;56.76
72395;BME280;60384;48.152;11.614;2024-01-15T15:52:17;94261.75;;;2.89;56.84
72395;BME280;60384;48.152;11.614;2024-01-15T15:55:20;94269.28;;;2.92;56.82
72395;BME280;60384;48.152;11.614;2024-01-15T15:58:24;94281.25;;;2.95;56.82
72395;BME280;60384;48.152;11.614;2024-01-15T16:01:26;94278.97;;;2.92;56.77
72395;BME280;60384;48.152;11.614;2024-01-15T16:04:28;94293.66;;;2.86;56.84
72395;BME280;60384;48.152;11.614;2024-01-15T16:07:30;94281.81;;;2.67;57.14
72395;BME280;60384;48.152;11.614;2024-01-15T16:10:33;94306.69;;;2.79;56.94
72395;BME280;60384;48.152;11.614;2024-01-15T16:13:35;94273.13;;;2.59;57.02